Time,TemperatureF,DewpointF,PressureIn,WindDirection,WindDirectionDegrees,WindSpeedMPH,WindSpeedGustMPH,Humidity,HourlyPrecipIn,Conditions,Clouds,dailyrainin,SoftwareType,DateUTC
2013-03-27 00:03:00,36.0,28.0,29.77,WNW,292,2.0,3.0,73,0.00,,,0.00,,2013-03-27 04:03:00,
2013-03-27 00:13:00,36.0,28.0,29.77,WNW,292,2.0,3.0,73,0.00,,,0.00,,2013-03-27 04:13:00,
2013-03-27 00:23:00,36.0,28.0,29.77,WNW,287,2.0,5.0,73,0.00,,,0.00,,2013-03-27 04:23:00,
2013-03-27 00:33:00,36.0,28.0,29.77,WNW,287,2.0,5.0,73,0.00,,,0.00,,2013-03-27 04:33:00,
2013-03-27 00:43:00,36.0,28.0,29.77,WNW,287,2.0,5.0,73,0.00,,,0.00,,2013-03-27 04:43:00,
2013-03-27 00:52:00,36.0,28.0,29.77,WSW,256,0.0,6.0,73,0.00,,,0.00,,2013-03-27 04:52:00,
2013-03-27 01:03:00,36.0,28.0,29.77,WSW,250,0.0,6.0,73,0.00,,,0.00,,2013-03-27 05:03:00,
2013-03-27 01:13:00,36.0,28.0,29.77,WSW,250,0.0,6.0,73,0.00,,,0.00,,2013-03-27 05:13:00,
2013-03-27 01:23:00,36.0,29.0,29.77,WNW,295,0.0,4.0,74,0.00,,,0.00,,2013-03-27 05:23:00,
2013-03-27 01:33:00,35.0,28.0,29.78,WNW,285,0.0,5.0,75,0.00,,,0.00,,2013-03-27 05:33:00,
2013-03-27 01:42:00,35.0,28.0,29.78,WNW,285,0.0,5.0,75,0.00,,,0.00,,2013-03-27 05:42:00,
2013-03-27 01:53:00,35.0,29.0,29.77,WNW,284,1.0,3.0,78,0.00,,,0.00,,2013-03-27 05:53:00,
2013-03-27 02:02:00,35.0,29.0,29.77,WNW,284,3.0,4.0,79,0.00,,,0.00,,2013-03-27 06:02:00,
2013-03-27 02:12:00,35.0,29.0,29.77,WNW,284,3.0,4.0,79,0.00,,,0.00,,2013-03-27 06:12:00,
2013-03-27 02:22:00,34.0,30.0,29.77,West,275,0.0,2.0,84,0.00,,,0.00,,2013-03-27 06:22:00,
2013-03-27 02:32:00,34.0,29.0,29.77,West,276,3.0,4.0,83,0.00,,,0.00,,2013-03-27 06:32:00,
2013-03-27 02:42:00,34.0,29.0,29.77,West,276,3.0,4.0,83,0.00,,,0.00,,2013-03-27 06:42:00,
2013-03-27 02:53:00,34.0,29.0,29.77,West,281,2.0,4.0,82,0.00,,,0.00,,2013-03-27 06:53:00,
2013-03-27 03:02:00,34.0,29.0,29.77,West,281,1.0,4.0,83,0.00,,,0.00,,2013-03-27 07:02:00,
2013-03-27 03:12:00,34.0,29.0,29.77,West,281,1.0,4.0,83,0.00,,,0.00,,2013-03-27 07:12:00,
2013-03-27 03:22:00,34.0,29.0,29.77,West,281,0.0,4.0,83,0.00,,,0.00,,2013-03-27 07:22:00,
2013-03-27 03:32:00,33.0,29.0,29.76,WNW,282,1.0,3.0,85,0.00,,,0.00,,2013-03-27 07:32:00,
2013-03-27 03:42:00,33.0,29.0,29.76,WNW,282,1.0,3.0,85,0.00,,,0.00,,2013-03-27 07:42:00,
2013-03-27 03:53:00,33.0,29.0,29.76,WNW,282,1.0,3.0,85,0.00,,,0.00,,2013-03-27 07:53:00,
2013-03-27 04:02:00,33.0,30.0,29.76,WNW,284,0.0,3.0,88,0.00,,,0.00,,2013-03-27 08:02:00,
2013-03-27 04:12:00,33.0,30.0,29.76,WNW,284,0.0,3.0,88,0.00,,,0.00,,2013-03-27 08:12:00,
2013-03-27 04:22:00,33.0,30.0,29.76,WNW,284,0.0,4.0,89,0.00,,,0.00,,2013-03-27 08:22:00,
2013-03-27 04:32:00,33.0,30.0,29.76,WNW,284,0.0,4.0,89,0.00,,,0.00,,2013-03-27 08:32:00,
2013-03-27 04:43:00,33.0,30.0,29.76,WNW,284,0.0,4.0,89,0.00,,,0.00,,2013-03-27 08:43:00,
2013-03-27 04:52:00,32.0,30.0,29.76,West,280,2.0,5.0,91,0.00,,,0.00,,2013-03-27 08:52:00,
2013-03-27 05:02:00,32.0,30.0,29.76,West,280,0.0,5.0,91,0.00,,,0.00,,2013-03-27 09:02:00,
2013-03-27 05:12:00,32.0,30.0,29.76,West,280,0.0,5.0,91,0.00,,,0.00,,2013-03-27 09:12:00,
2013-03-27 05:22:00,32.0,29.0,29.77,West,280,0.0,0.0,90,0.00,,,0.00,,2013-03-27 09:22:00,
2013-03-27 05:33:00,32.0,29.0,29.76,West,280,0.0,0.0,90,0.00,,,0.00,,2013-03-27 09:33:00,
2013-03-27 05:42:00,32.0,29.0,29.76,West,280,0.0,0.0,90,0.00,,,0.00,,2013-03-27 09:42:00,
2013-03-27 05:52:00,31.0,28.0,29.77,West,280,0.0,0.0,90,0.00,,,0.00,,2013-03-27 09:52:00,
2013-03-27 06:02:00,31.0,29.0,29.77,West,280,0.0,3.0,91,0.00,,,0.00,,2013-03-27 10:02:00,
2013-03-27 06:12:00,31.0,29.0,29.77,West,280,0.0,3.0,91,0.00,,,0.00,,2013-03-27 10:12:00,
2013-03-27 06:23:00,31.0,29.0,29.77,West,281,0.0,4.0,91,0.00,,,0.00,,2013-03-27 10:23:00,
2013-03-27 06:32:00,31.0,29.0,29.77,West,281,0.0,4.0,91,0.00,,,0.00,,2013-03-27 10:32:00,
2013-03-27 06:42:00,31.0,29.0,29.77,West,281,0.0,4.0,91,0.00,,,0.00,,2013-03-27 10:42:00,
2013-03-27 06:53:00,31.0,29.0,29.77,SW,217,0.0,2.0,91,0.00,,,0.00,,2013-03-27 10:53:00,
2013-03-27 07:02:00,31.0,29.0,29.77,WNW,297,1.0,6.0,91,0.00,,,0.00,,2013-03-27 11:02:00,
2013-03-27 07:12:00,31.0,29.0,29.77,WNW,297,1.0,6.0,91,0.00,,,0.00,,2013-03-27 11:12:00,
2013-03-27 07:22:00,32.0,30.0,29.78,WNW,302,1.0,6.0,91,0.00,,,0.00,,2013-03-27 11:22:00,
2013-03-27 07:32:00,32.0,29.0,29.78,West,274,0.0,5.0,89,0.00,,,0.00,,2013-03-27 11:32:00,
2013-03-27 07:42:00,32.0,29.0,29.78,West,274,0.0,5.0,89,0.00,,,0.00,,2013-03-27 11:42:00,
2013-03-27 07:52:00,33.0,30.0,29.78,West,275,0.0,5.0,88,0.00,,,0.00,,2013-03-27 11:52:00,
2013-03-27 08:02:00,34.0,31.0,29.78,West,276,2.0,8.0,88,0.00,,,0.00,,2013-03-27 12:02:00,
2013-03-27 08:12:00,34.0,31.0,29.78,West,276,2.0,8.0,88,0.00,,,0.00,,2013-03-27 12:12:00,
2013-03-27 08:23:00,36.0,32.0,29.78,West,261,6.0,9.0,85,0.00,,,0.00,,2013-03-27 12:23:00,
2013-03-27 08:32:00,36.0,32.0,29.78,West,261,6.0,9.0,85,0.00,,,0.00,,2013-03-27 12:32:00,
2013-03-27 08:43:00,36.0,32.0,29.78,West,261,6.0,9.0,85,0.00,,,0.00,,2013-03-27 12:43:00,
2013-03-27 08:52:00,40.0,34.0,29.79,NW,307,4.0,10.0,80,0.00,,,0.00,,2013-03-27 12:52:00,
2013-03-27 09:02:00,40.0,34.0,29.79,WSW,250,8.0,10.0,79,0.00,,,0.00,,2013-03-27 13:02:00,
2013-03-27 09:12:00,40.0,34.0,29.79,WSW,250,8.0,10.0,79,0.00,,,0.00,,2013-03-27 13:12:00,
2013-03-27 09:22:00,42.0,35.0,29.78,NW,312,3.0,10.0,76,0.00,,,0.00,,2013-03-27 13:22:00,
2013-03-27 09:32:00,42.0,35.0,29.78,WSW,249,4.0,10.0,77,0.00,,,0.00,,2013-03-27 13:32:00,
2013-03-27 09:42:00,42.0,35.0,29.78,WSW,249,4.0,10.0,77,0.00,,,0.00,,2013-03-27 13:42:00,
2013-03-27 09:53:00,43.0,36.0,29.78,WNW,303,3.0,8.0,75,0.00,,,0.00,,2013-03-27 13:53:00,
2013-03-27 10:02:00,44.0,36.0,29.78,WNW,292,6.0,15.0,73,0.00,,,0.00,,2013-03-27 14:02:00,
2013-03-27 10:12:00,44.0,36.0,29.78,WNW,292,6.0,15.0,73,0.00,,,0.00,,2013-03-27 14:12:00,
2013-03-27 10:22:00,44.0,36.0,29.78,WSW,253,5.0,15.0,74,0.00,,,0.00,,2013-03-27 14:22:00,
2013-03-27 10:32:00,44.0,36.0,29.78,WSW,253,5.0,15.0,74,0.00,,,0.00,,2013-03-27 14:32:00,
2013-03-27 10:42:00,44.0,36.0,29.78,WSW,253,5.0,15.0,74,0.00,,,0.00,,2013-03-27 14:42:00,
2013-03-27 10:52:00,47.0,37.0,29.77,WNW,295,5.0,10.0,68,0.00,,,0.00,,2013-03-27 14:52:00,
2013-03-27 11:03:00,47.0,37.0,29.77,WNW,295,5.0,10.0,68,0.00,,,0.00,,2013-03-27 15:03:00,
2013-03-27 11:12:00,47.0,37.0,29.77,WNW,295,5.0,10.0,68,0.00,,,0.00,,2013-03-27 15:12:00,
2013-03-27 11:22:00,49.0,40.0,29.77,WNW,298,2.0,10.0,71,0.00,,,0.00,,2013-03-27 15:22:00,
2013-03-27 11:33:00,49.0,40.0,29.77,WNW,300,3.0,13.0,70,0.00,,,0.00,,2013-03-27 15:33:00,
2013-03-27 11:43:00,49.0,40.0,29.77,WNW,300,3.0,13.0,70,0.00,,,0.00,,2013-03-27 15:43:00,
2013-03-27 11:53:00,49.0,40.0,29.77,WNW,300,3.0,13.0,70,0.00,,,0.00,,2013-03-27 15:53:00,
2013-03-27 12:03:00,50.0,41.0,29.75,North,353,6.0,14.0,71,0.00,,,0.00,,2013-03-27 16:03:00,
2013-03-27 12:13:00,50.0,41.0,29.75,North,353,6.0,14.0,71,0.00,,,0.00,,2013-03-27 16:13:00,
2013-03-27 12:23:00,50.0,38.0,29.75,North,355,3.0,10.0,63,0.00,,,0.00,,2013-03-27 16:23:00,
2013-03-27 12:33:00,50.0,38.0,29.75,NW,311,5.0,15.0,64,0.00,,,0.00,,2013-03-27 16:33:00,
2013-03-27 12:42:00,50.0,38.0,29.75,NW,311,5.0,15.0,64,0.00,,,0.00,,2013-03-27 16:42:00,
2013-03-27 12:52:00,50.0,38.0,29.75,WSW,249,7.0,14.0,63,0.00,,,0.00,,2013-03-27 16:52:00,
2013-03-27 13:03:00,51.0,41.0,29.74,WNW,285,5.0,14.0,68,0.00,,,0.00,,2013-03-27 17:03:00,
2013-03-27 13:12:00,51.0,41.0,29.74,WNW,285,5.0,14.0,68,0.00,,,0.00,,2013-03-27 17:12:00,
2013-03-27 13:22:00,52.0,41.0,29.74,North,354,11.0,16.0,65,0.00,,,0.00,,2013-03-27 17:22:00,
2013-03-27 13:32:00,52.0,41.0,29.74,North,354,11.0,16.0,65,0.00,,,0.00,,2013-03-27 17:32:00,
2013-03-27 13:44:00,52.0,41.0,29.74,North,354,11.0,16.0,65,0.00,,,0.00,,2013-03-27 17:44:00,
2013-03-27 13:52:00,52.0,41.0,29.73,West,271,5.0,11.0,66,0.00,,,0.00,,2013-03-27 17:52:00,
2013-03-27 14:02:00,53.0,42.0,29.73,West,265,6.0,17.0,66,0.00,,,0.00,,2013-03-27 18:02:00,
2013-03-27 14:12:00,53.0,42.0,29.73,West,265,6.0,17.0,66,0.00,,,0.00,,2013-03-27 18:12:00,
2013-03-27 14:23:00,53.0,42.0,29.73,West,265,6.0,17.0,66,0.00,,,0.00,,2013-03-27 18:23:00,
2013-03-27 14:32:00,52.0,41.0,29.73,WNW,303,6.0,15.0,65,0.00,,,0.00,,2013-03-27 18:32:00,
2013-03-27 14:42:00,52.0,41.0,29.73,WNW,303,6.0,15.0,65,0.00,,,0.00,,2013-03-27 18:42:00,
2013-03-27 14:53:00,52.0,40.0,29.74,North,358,6.0,14.0,64,0.00,,,0.00,,2013-03-27 18:53:00,
2013-03-27 15:03:00,51.0,40.0,29.74,NNW,332,8.0,15.0,65,0.00,,,0.00,,2013-03-27 19:03:00,
2013-03-27 15:12:00,51.0,40.0,29.74,NNW,332,8.0,15.0,65,0.00,,,0.00,,2013-03-27 19:12:00,
2013-03-27 15:22:00,51.0,39.0,29.73,NW,322,3.0,14.0,64,0.00,,,0.00,,2013-03-27 19:22:00,
2013-03-27 15:32:00,52.0,41.0,29.74,North,351,8.0,14.0,65,0.00,,,0.00,,2013-03-27 19:32:00,
2013-03-27 15:42:00,52.0,41.0,29.74,North,351,8.0,14.0,65,0.00,,,0.00,,2013-03-27 19:42:00,
2013-03-27 15:52:00,52.0,41.0,29.74,West,276,3.0,10.0,65,0.00,,,0.00,,2013-03-27 19:52:00,
2013-03-27 16:02:00,51.0,40.0,29.74,North,356,4.0,16.0,65,0.00,,,0.00,,2013-03-27 20:02:00,
2013-03-27 16:12:00,51.0,40.0,29.74,North,356,4.0,16.0,65,0.00,,,0.00,,2013-03-27 20:12:00,
2013-03-27 16:22:00,52.0,40.0,29.74,West,261,3.0,8.0,64,0.00,,,0.00,,2013-03-27 20:22:00,
2013-03-27 16:32:00,52.0,41.0,29.74,North,355,8.0,14.0,65,0.00,,,0.00,,2013-03-27 20:32:00,
2013-03-27 16:42:00,52.0,41.0,29.74,North,355,8.0,14.0,65,0.00,,,0.00,,2013-03-27 20:42:00,
2013-03-27 16:52:00,51.0,40.0,29.75,WNW,300,4.0,10.0,66,0.00,,,0.00,,2013-03-27 20:52:00,
2013-03-27 17:02:00,50.0,39.0,29.75,WSW,245,3.0,19.0,67,0.00,,,0.00,,2013-03-27 21:02:00,
2013-03-27 17:12:00,50.0,39.0,29.75,WSW,245,3.0,19.0,67,0.00,,,0.00,,2013-03-27 21:12:00,
2013-03-27 17:22:00,51.0,40.0,29.76,West,280,6.0,11.0,66,0.00,,,0.00,,2013-03-27 21:22:00,
2013-03-27 17:32:00,51.0,40.0,29.76,West,280,6.0,11.0,66,0.00,,,0.00,,2013-03-27 21:32:00,
2013-03-27 17:43:00,51.0,40.0,29.76,West,280,6.0,11.0,66,0.00,,,0.00,,2013-03-27 21:43:00,
2013-03-27 17:52:00,50.0,39.0,29.78,NW,325,2.0,11.0,67,0.00,,,0.00,,2013-03-27 21:52:00,
2013-03-27 18:03:00,49.0,39.0,29.78,NW,311,4.0,12.0,68,0.00,,,0.00,,2013-03-27 22:03:00,
2013-03-27 18:12:00,49.0,39.0,29.78,NW,311,4.0,12.0,68,0.00,,,0.00,,2013-03-27 22:12:00,
2013-03-27 18:23:00,48.0,39.0,29.79,WSW,255,3.0,13.0,70,0.00,,,0.00,,2013-03-27 22:23:00,
2013-03-27 18:33:00,48.0,39.0,29.80,NNW,329,5.0,15.0,71,0.00,,,0.00,,2013-03-27 22:33:00,
2013-03-27 18:42:00,48.0,39.0,29.80,NNW,329,5.0,15.0,71,0.00,,,0.00,,2013-03-27 22:42:00,
2013-03-27 18:53:00,47.0,39.0,29.81,North,0,7.0,17.0,74,0.00,,,0.00,,2013-03-27 22:53:00,
2013-03-27 19:02:00,47.0,39.0,29.81,WNW,283,4.0,17.0,74,0.00,,,0.00,,2013-03-27 23:02:00,
2013-03-27 19:12:00,47.0,39.0,29.81,WNW,283,4.0,17.0,74,0.00,,,0.00,,2013-03-27 23:12:00,
2013-03-27 19:22:00,46.0,39.0,29.82,North,0,4.0,12.0,77,0.00,,,0.00,,2013-03-27 23:22:00,
2013-03-27 19:32:00,46.0,39.0,29.82,North,0,4.0,12.0,77,0.00,,,0.00,,2013-03-27 23:32:00,
2013-03-27 19:42:00,46.0,39.0,29.82,North,0,4.0,12.0,77,0.00,,,0.00,,2013-03-27 23:42:00,
2013-03-27 19:52:00,45.0,39.0,29.83,NNW,331,7.0,16.0,80,0.00,,,0.00,,2013-03-27 23:52:00,
2013-03-27 20:02:00,45.0,39.0,29.83,NNW,331,7.0,16.0,80,0.00,,,0.00,,2013-03-28 00:02:00,
2013-03-27 20:12:00,45.0,39.0,29.83,NNW,331,7.0,16.0,80,0.00,,,0.00,,2013-03-28 00:12:00,
2013-03-27 20:22:00,43.0,39.0,29.84,North,0,13.0,21.0,86,0.00,,,0.00,,2013-03-28 00:22:00,
2013-03-27 20:33:00,43.0,40.0,29.85,North,359,13.0,21.0,88,0.00,,,0.00,,2013-03-28 00:33:00,
2013-03-27 20:43:00,43.0,40.0,29.85,North,359,13.0,21.0,88,0.00,,,0.00,,2013-03-28 00:43:00,
2013-03-27 20:52:00,43.0,39.0,29.85,North,351,5.0,21.0,87,0.00,,,0.00,,2013-03-28 00:52:00,
2013-03-27 21:02:00,42.0,39.0,29.85,NNW,342,6.0,17.0,89,0.00,,,0.00,,2013-03-28 01:02:00,
2013-03-27 21:12:00,42.0,39.0,29.85,NNW,342,6.0,17.0,89,0.00,,,0.00,,2013-03-28 01:12:00,
2013-03-27 21:22:00,42.0,40.0,29.86,NNW,343,3.0,8.0,92,0.00,,,0.00,,2013-03-28 01:22:00,
2013-03-27 21:32:00,42.0,40.0,29.87,North,354,4.0,9.0,93,0.00,,,0.00,,2013-03-28 01:32:00,
2013-03-27 21:42:00,42.0,40.0,29.87,North,354,4.0,9.0,93,0.00,,,0.00,,2013-03-28 01:42:00,
2013-03-27 21:53:00,41.0,40.0,29.87,NNW,342,8.0,10.0,96,0.00,,,0.00,,2013-03-28 01:53:00,
2013-03-27 22:02:00,41.0,40.0,29.87,NNW,342,8.0,10.0,96,0.00,,,0.00,,2013-03-28 02:02:00,
2013-03-27 22:12:00,41.0,40.0,29.87,NNW,342,8.0,10.0,96,0.00,,,0.00,,2013-03-28 02:12:00,
2013-03-27 22:22:00,40.0,39.0,29.87,NNW,334,4.0,9.0,97,0.00,,,0.00,,2013-03-28 02:22:00,
2013-03-27 22:32:00,40.0,39.0,29.87,North,0,5.0,11.0,98,0.00,,,0.00,,2013-03-28 02:32:00,
2013-03-27 22:42:00,40.0,39.0,29.87,North,0,5.0,11.0,98,0.00,,,0.00,,2013-03-28 02:42:00,
2013-03-27 22:52:00,40.0,39.0,29.87,North,0,5.0,11.0,98,0.00,,,0.00,,2013-03-28 02:52:00,
2013-03-27 23:02:00,40.0,40.0,29.87,NW,310,9.0,10.0,100,0.00,,,0.00,,2013-03-28 03:02:00,
2013-03-27 23:12:00,40.0,40.0,29.87,NW,310,9.0,10.0,100,0.00,,,0.00,,2013-03-28 03:12:00,
2013-03-27 23:22:00,40.0,40.0,29.87,North,0,7.0,9.0,100,0.00,,,0.00,,2013-03-28 03:22:00,
2013-03-27 23:33:00,39.0,39.0,29.87,NNW,332,3.0,10.0,100,0.00,,,0.00,,2013-03-28 03:33:00,
2013-03-27 23:43:00,39.0,39.0,29.87,NNW,332,3.0,10.0,100,0.00,,,0.00,,2013-03-28 03:43:00,
2013-03-27 23:53:00,39.0,39.0,29.87,NNW,333,10.0,11.0,100,0.00,,,0.00,,2013-03-28 03:53:00,